createdAt,value
2023-03-23T15:58:18.367Z,66.50
2023-03-23T15:59:18.356Z,66.60
2023-03-23T16:00:18.343Z,66.57
2023-03-23T16:01:18.511Z,66.47
2023-03-23T16:02:18.364Z,66.47
2023-03-23T16:03:18.335Z,66.47
2023-03-23T16:04:18.282Z,66.57
2023-03-23T16:05:18.307Z,66.57
2023-03-23T16:06:23.824Z,66.88
2023-03-23T16:07:19.317Z,66.27
2023-03-23T16:08:18.266Z,66.37
2023-03-23T16:09:18.270Z,66.47
2023-03-23T16:10:18.238Z,66.47
2023-03-23T16:11:18.234Z,66.57
2023-03-23T16:12:18.197Z,66.57
2023-03-23T16:13:18.209Z,66.27
2023-03-23T16:14:18.188Z,66.37
2023-03-23T16:15:18.183Z,66.06
2023-03-23T16:16:19.157Z,65.93
2023-03-23T16:17:18.191Z,65.93
2023-03-23T16:18:18.131Z,66.03
2023-03-23T16:19:18.151Z,66.24
2023-03-23T16:20:18.102Z,66.44
2023-03-23T16:21:18.100Z,66.33
2023-03-23T16:22:18.727Z,66.03
2023-03-23T16:23:18.057Z,66.13
2023-03-23T16:24:19.052Z,66.33
2023-03-23T16:25:18.075Z,66.24
2023-03-23T16:26:18.047Z,66.33
2023-03-23T16:27:18.033Z,66.54
2023-03-23T16:28:18.040Z,66.74
2023-03-23T16:29:33.910Z,66.84
2023-03-23T16:30:19.032Z,67.05
2023-03-23T16:31:18.044Z,66.74
2023-03-23T16:32:17.996Z,66.44
2023-03-23T16:33:18.016Z,66.13
2023-03-23T16:34:17.972Z,65.73
2023-03-23T16:35:17.976Z,65.32
2023-03-23T16:36:17.998Z,65.12
2023-03-23T16:37:17.904Z,65.53
2023-03-23T16:38:17.918Z,65.73
2023-03-23T16:39:17.893Z,65.56
2023-03-23T16:40:17.917Z,65.73
2023-03-23T16:41:18.819Z,65.83
2023-03-23T16:42:17.878Z,66.33
2023-03-23T16:43:17.863Z,66.33
2023-03-23T16:44:17.854Z,66.33
2023-03-23T16:45:17.832Z,66.64
2023-03-23T16:46:17.919Z,66.84
2023-03-23T16:47:17.805Z,67.05
2023-03-23T16:48:17.832Z,67.14
2023-03-23T16:49:17.778Z,66.74
2023-03-23T16:50:17.788Z,66.74
2023-03-23T16:51:17.775Z,66.74
2023-03-23T16:52:17.777Z,66.97
2023-03-23T16:53:17.751Z,66.77
2023-03-23T16:54:17.733Z,66.88
2023-03-23T16:55:17.711Z,66.97
2023-03-23T16:56:19.201Z,67.08
2023-03-23T16:57:17.682Z,67.08
2023-03-23T16:58:18.665Z,67.31
2023-03-23T16:59:17.686Z,67.41
2023-03-23T17:00:17.697Z,67.61
2023-03-23T17:01:17.676Z,68.02
2023-03-23T17:02:17.755Z,68.02
2023-03-23T17:03:18.723Z,67.82
2023-03-23T17:04:17.624Z,67.92
2023-03-23T17:05:19.043Z,68.02
2023-03-23T17:06:17.620Z,68.12
2023-03-23T17:07:17.586Z,68.26
2023-03-23T17:08:17.585Z,68.56
2023-03-23T17:09:17.558Z,68.56
2023-03-23T17:10:17.589Z,68.76
2023-03-23T17:11:17.522Z,68.87
2023-03-23T17:12:17.548Z,69.07
2023-03-23T17:13:17.549Z,68.56
2023-03-23T17:14:17.550Z,68.35
2023-03-23T17:15:18.958Z,68.46
2023-03-23T17:16:17.550Z,68.76
2023-03-23T17:17:18.419Z,68.87
2023-03-23T17:18:17.487Z,68.96
2023-03-23T17:19:17.428Z,69.17
2023-03-23T17:20:17.460Z,69.17
2023-03-23T17:21:17.430Z,69.17
2023-03-23T17:22:17.474Z,69.17
2023-03-23T17:23:17.404Z,69.27
2023-03-23T17:24:17.398Z,69.17
2023-03-23T17:25:17.365Z,69.27
2023-03-23T17:26:17.406Z,69.07
2023-03-23T17:27:17.342Z,69.07
2023-03-23T17:28:19.565Z,69.07
2023-03-23T17:29:17.321Z,69.30
2023-03-23T17:30:17.333Z,69.40
2023-03-23T17:31:17.330Z,69.30
2023-03-23T17:32:17.313Z,69.40
2023-03-23T17:33:17.296Z,69.30
2023-03-23T17:34:18.746Z,69.40
2023-03-23T17:35:17.296Z,69.51
2023-03-23T17:36:17.302Z,69.71
2023-03-23T17:37:17.239Z,69.71
2023-03-23T17:38:17.242Z,69.60
2023-03-23T17:39:17.210Z,69.71
2023-03-23T17:40:17.244Z,69.81
2023-03-23T17:41:17.201Z,70.01
2023-03-23T17:42:17.242Z,70.11
2023-03-23T17:43:17.182Z,70.21
2023-03-23T17:44:17.179Z,70.32
2023-03-23T17:45:17.147Z,70.32
2023-03-23T17:46:17.179Z,70.32
2023-03-23T17:47:17.143Z,70.52
2023-03-23T17:48:17.142Z,70.62
2023-03-23T17:49:17.108Z,70.72
2023-03-23T17:50:17.120Z,70.72
2023-03-23T17:51:17.111Z,70.72
2023-03-23T17:52:17.084Z,70.72
2023-03-23T17:53:17.312Z,70.83
2023-03-23T17:54:17.073Z,70.83
2023-03-23T17:55:17.020Z,70.83
2023-03-23T17:56:17.036Z,70.62
2023-03-23T17:57:16.994Z,70.52
2023-03-23T17:58:17.041Z,70.32
2023-03-23T17:59:17.937Z,70.42
2023-03-23T18:00:17.968Z,70.52
2023-03-23T18:01:16.997Z,70.52
2023-03-23T18:02:17.001Z,70.35
2023-03-23T18:03:16.968Z,70.52
2023-03-23T18:04:16.952Z,70.65
2023-03-23T18:05:16.919Z,70.76
2023-03-23T18:06:16.960Z,70.86
2023-03-23T18:07:16.891Z,70.55
2023-03-23T18:08:16.916Z,70.55
2023-03-23T18:09:16.862Z,70.65
2023-03-23T18:10:16.874Z,70.76
2023-03-23T18:11:16.845Z,70.76
2023-03-23T18:12:17.852Z,70.96
2023-03-23T18:13:17.790Z,70.68
2023-03-23T18:14:17.805Z,70.79
2023-03-23T18:15:17.751Z,70.99
2023-03-23T18:16:17.812Z,71.09
2023-03-23T18:17:17.724Z,71.30
2023-03-23T18:18:17.743Z,71.50
2023-03-23T18:19:17.707Z,71.60
2023-03-23T18:20:16.760Z,71.91
2023-03-23T18:21:16.755Z,71.91
2023-03-23T18:22:16.752Z,72.01
2023-03-23T18:23:16.719Z,72.25
2023-03-23T18:24:17.683Z,72.34
2023-03-23T18:25:16.709Z,72.55
2023-03-23T18:26:16.711Z,72.75
2023-03-23T18:27:16.682Z,72.75
2023-03-23T18:28:16.704Z,72.65
2023-03-23T18:29:16.656Z,72.75
2023-03-23T18:30:16.680Z,72.85
2023-03-23T18:31:16.644Z,73.06
2023-03-23T18:32:16.624Z,73.26
2023-03-23T18:33:18.205Z,73.36
2023-03-23T18:34:16.631Z,73.46
2023-03-23T18:35:16.568Z,73.70
2023-03-23T18:36:16.610Z,73.80
2023-03-23T18:37:16.546Z,73.91
2023-03-23T18:38:16.557Z,74.01
2023-03-23T18:39:16.545Z,74.11
2023-03-23T18:40:16.546Z,74.31
2023-03-23T18:41:16.519Z,74.31
2023-03-23T18:42:16.511Z,74.41
2023-03-23T18:43:16.496Z,74.52
2023-03-23T18:44:16.532Z,74.41
2023-03-23T18:45:16.481Z,74.52
2023-03-23T18:46:16.536Z,74.52
2023-03-23T18:47:16.431Z,74.62
2023-03-23T18:48:16.461Z,74.62
2023-03-23T18:49:16.422Z,74.85
2023-03-23T18:50:16.474Z,74.96
2023-03-23T18:51:16.383Z,74.85
2023-03-23T18:52:16.402Z,74.65
2023-03-23T18:53:16.380Z,74.76
2023-03-23T18:54:16.381Z,74.55
2023-03-23T18:55:16.378Z,74.65
2023-03-23T18:56:16.379Z,74.76
2023-03-23T18:57:16.347Z,74.76
2023-03-23T18:58:16.339Z,74.85
2023-03-23T18:59:16.324Z,74.96
2023-03-23T19:00:16.333Z,74.96
2023-03-23T19:01:16.350Z,75.06
2023-03-23T19:02:16.370Z,75.16
2023-03-23T19:03:16.329Z,75.16
2023-03-23T19:04:16.299Z,74.96
2023-03-23T19:05:16.246Z,74.89
2023-03-23T19:06:16.297Z,74.79
2023-03-23T19:07:16.240Z,74.79
2023-03-23T19:08:16.261Z,74.79
2023-03-23T19:09:16.217Z,74.58
2023-03-23T19:10:16.206Z,74.38
2023-03-23T19:11:16.184Z,74.38
2023-03-23T19:12:16.213Z,74.38
2023-03-23T19:13:16.492Z,74.38
2023-03-23T19:14:16.161Z,73.87
2023-03-23T19:15:16.139Z,73.97
2023-03-23T19:16:16.171Z,73.87
2023-03-23T19:17:17.587Z,73.97
2023-03-23T19:18:16.134Z,73.97
2023-03-23T19:19:16.575Z,73.57
2023-03-23T19:20:23.618Z,73.26
2023-03-23T19:21:20.540Z,73.26
2023-03-23T19:22:17.082Z,73.16
2023-03-23T19:23:16.052Z,73.16
2023-03-23T19:24:16.069Z,73.06
2023-03-23T19:25:16.690Z,73.26
2023-03-23T19:26:16.029Z,73.16
2023-03-23T19:27:16.586Z,73.26
2023-03-23T19:30:16.017Z,72.86
2023-03-23T19:31:15.993Z,72.86
2023-03-23T19:32:15.967Z,72.75
2023-03-23T19:33:15.924Z,72.55
2023-03-23T19:34:15.962Z,72.55
2023-03-23T19:35:16.671Z,72.45
2023-03-23T19:36:16.806Z,72.25
2023-03-23T19:37:16.344Z,72.04
2023-03-23T19:38:15.900Z,72.14
2023-03-23T19:39:15.910Z,72.25
2023-03-23T19:40:35.407Z,72.25
2023-03-23T19:41:18.978Z,72.34
2023-03-23T19:42:16.003Z,72.34
2023-03-23T19:43:15.813Z,72.25
2023-03-23T19:44:15.816Z,72.25
2023-03-23T19:45:15.972Z,72.25
2023-03-23T19:46:15.873Z,72.45
2023-03-23T19:47:15.830Z,72.45
2023-03-23T19:48:16.265Z,72.78
2023-03-23T19:49:15.738Z,72.89
2023-03-23T19:50:16.642Z,72.89
2023-03-23T19:51:15.715Z,72.89
2023-03-23T19:52:18.257Z,72.89
2023-03-23T19:53:15.911Z,72.58
2023-03-23T19:54:15.695Z,72.58
2023-03-23T19:55:15.759Z,72.58
2023-03-23T19:56:16.672Z,72.69
2023-03-23T19:57:16.718Z,72.78
2023-03-23T19:58:16.241Z,72.78
2023-03-23T19:59:16.304Z,72.78
2023-03-23T20:00:15.642Z,72.89
2023-03-23T20:01:15.670Z,72.69
2023-03-23T20:02:15.632Z,72.38
2023-03-23T20:03:16.009Z,72.28
2023-03-23T20:04:15.585Z,72.38
2023-03-23T20:05:15.652Z,72.58
2023-03-23T20:06:15.678Z,72.69
2023-03-23T20:07:15.539Z,72.69
2023-03-23T20:08:16.108Z,72.78
2023-03-23T20:09:15.519Z,72.78
2023-03-23T20:10:15.528Z,72.89
2023-03-23T20:11:16.165Z,72.89
2023-03-23T20:12:16.188Z,72.99
2023-03-23T20:13:15.488Z,73.10
2023-03-23T20:14:15.495Z,73.10
2023-03-23T20:15:15.455Z,73.19
2023-03-23T20:16:15.722Z,73.19
2023-03-23T20:17:15.427Z,73.19
2023-03-23T20:18:15.481Z,73.19
2023-03-23T20:19:15.407Z,73.43
2023-03-23T20:20:16.090Z,73.64
2023-03-23T20:21:15.379Z,73.64
2023-03-23T20:22:15.423Z,73.54
2023-03-23T20:23:15.381Z,73.54
2023-03-23T20:24:15.536Z,73.54
2023-03-23T20:25:15.669Z,73.64
2023-03-23T20:26:15.364Z,73.64
2023-03-23T20:27:15.525Z,73.74
2023-03-23T20:28:15.321Z,73.84
2023-03-23T20:29:15.281Z,73.74
2023-03-23T20:30:15.556Z,73.84
2023-03-23T20:31:19.971Z,73.94
2023-03-23T20:32:16.274Z,74.04
2023-03-23T20:33:15.242Z,74.04
2023-03-23T20:34:15.254Z,74.04
2023-03-23T20:35:15.213Z,74.15
2023-03-23T20:36:15.310Z,74.15
2023-03-23T20:37:15.218Z,74.04
2023-03-23T20:38:15.219Z,74.15
2023-03-23T20:39:15.222Z,74.25
2023-03-23T20:40:15.188Z,74.25
2023-03-23T20:41:15.196Z,74.25
2023-03-23T20:42:15.145Z,74.25
2023-03-23T20:43:15.147Z,74.25
2023-03-23T20:44:15.125Z,74.35
2023-03-23T20:45:15.154Z,74.25
2023-03-23T20:46:15.805Z,74.35
2023-03-23T20:47:15.109Z,74.35
2023-03-23T20:48:15.081Z,74.45
2023-03-23T20:49:15.080Z,74.45
2023-03-23T20:50:15.060Z,74.45
2023-03-23T20:51:15.094Z,74.45
2023-03-23T20:52:15.028Z,74.45
2023-03-23T20:53:15.032Z,74.45
2023-03-23T20:54:15.025Z,74.65
2023-03-23T20:55:15.037Z,74.65
2023-03-23T20:56:14.976Z,74.65
2023-03-23T20:57:15.031Z,74.65
2023-03-23T20:58:14.978Z,74.65
2023-03-23T20:59:14.998Z,74.65
2023-03-23T21:00:14.947Z,74.76
2023-03-23T21:01:15.041Z,74.86
2023-03-23T21:02:14.929Z,74.96
2023-03-23T21:03:15.886Z,74.86
2023-03-23T21:04:15.844Z,74.76
2023-03-23T21:05:14.945Z,75.06
2023-03-23T21:06:14.869Z,74.96
2023-03-23T21:07:14.886Z,75.16
2023-03-23T21:08:14.846Z,75.06
2023-03-23T21:09:14.849Z,75.27
2023-03-23T21:10:14.840Z,75.27
2023-03-23T21:11:14.831Z,75.37
2023-03-23T21:12:14.807Z,75.37
2023-03-23T21:13:14.816Z,75.57
2023-03-23T21:14:16.259Z,75.67
2023-03-23T21:15:16.272Z,75.78
2023-03-23T21:16:14.772Z,75.98
2023-03-23T21:17:16.240Z,75.98
2023-03-23T21:18:14.760Z,76.08
2023-03-23T21:19:14.741Z,76.18
2023-03-23T21:20:14.753Z,76.39
2023-03-23T21:21:14.844Z,76.39
2023-03-23T21:22:14.760Z,76.49
2023-03-23T21:23:14.984Z,76.59
2023-03-23T21:24:14.682Z,76.59
2023-03-23T21:25:14.696Z,76.69
2023-03-23T21:26:14.641Z,76.79
2023-03-23T21:27:14.956Z,76.79
2023-03-23T21:28:14.656Z,77.00
2023-03-23T21:29:14.629Z,76.90
2023-03-23T21:30:14.628Z,77.00
2023-03-23T21:31:14.607Z,77.20
2023-03-23T21:32:15.578Z,77.20
2023-03-23T21:33:14.617Z,77.30
2023-03-23T21:34:14.564Z,77.51
2023-03-23T21:35:14.571Z,77.40
2023-03-23T21:36:14.536Z,77.40
2023-03-23T21:37:14.562Z,77.51
2023-03-23T21:38:14.527Z,77.61
2023-03-23T21:39:14.517Z,77.71
2023-03-23T21:40:14.473Z,77.81
2023-03-23T21:41:14.570Z,77.91
2023-03-23T21:42:14.484Z,78.12
2023-03-23T21:43:14.484Z,78.22
2023-03-23T21:44:14.449Z,78.22
2023-03-23T21:45:14.447Z,78.32
2023-03-23T21:46:14.412Z,78.42
2023-03-23T21:47:14.487Z,78.53
2023-03-23T21:48:14.390Z,78.42
2023-03-23T21:49:14.617Z,78.42
2023-03-23T21:50:14.370Z,78.32
2023-03-23T21:51:14.377Z,78.32
2023-03-23T21:52:14.361Z,78.53
2023-03-23T21:53:14.351Z,78.53
2023-03-23T21:54:14.335Z,78.53
2023-03-23T21:55:14.351Z,79.03
2023-03-23T21:56:14.316Z,79.24
2023-03-23T21:57:14.320Z,79.44
2023-03-23T21:58:14.286Z,79.64
2023-03-23T21:59:14.308Z,79.85
2023-03-23T22:00:14.255Z,80.09
2023-03-23T22:01:14.283Z,80.19
2023-03-23T22:02:14.247Z,80.40
2023-03-23T22:03:14.282Z,80.29
2023-03-23T22:04:14.238Z,80.50
2023-03-23T22:05:14.213Z,80.50
2023-03-23T22:06:14.188Z,80.60
2023-03-23T22:07:14.208Z,80.70
2023-03-23T22:08:14.174Z,80.70
2023-03-23T22:09:14.202Z,80.70
2023-03-23T22:10:14.152Z,80.70
2023-03-23T22:11:14.158Z,80.91
2023-03-23T22:12:14.110Z,80.91
2023-03-23T22:13:14.120Z,81.01
2023-03-23T22:14:14.127Z,81.11
2023-03-23T22:15:14.112Z,81.11
2023-03-23T22:16:14.108Z,81.31
2023-03-23T22:17:14.080Z,81.41
2023-03-23T22:18:14.062Z,81.72
2023-03-23T22:19:14.098Z,81.93
2023-03-23T22:20:14.031Z,82.13
2023-03-23T22:21:14.042Z,82.27
2023-03-23T22:22:14.005Z,82.37
2023-03-23T22:23:14.040Z,82.33
2023-03-23T22:24:14.037Z,82.43
2023-03-23T22:25:14.013Z,82.33
2023-03-23T22:26:13.975Z,82.43
2023-03-23T22:27:13.970Z,82.57
2023-03-23T22:28:13.932Z,82.43
2023-03-23T22:29:13.966Z,82.57
2023-03-23T22:30:13.912Z,82.57
2023-03-23T22:31:13.952Z,82.57
2023-03-23T22:32:13.912Z,82.57
2023-03-23T22:33:13.941Z,82.57
2023-03-23T22:34:13.966Z,82.57
2023-03-23T22:35:13.910Z,82.47
2023-03-23T22:36:13.944Z,82.57
2023-03-23T22:37:13.857Z,82.57
2023-03-23T22:38:13.829Z,82.57
2023-03-23T22:39:13.883Z,82.47
2023-03-23T22:40:13.840Z,82.47
2023-03-23T22:41:13.823Z,82.23
2023-03-23T22:42:13.797Z,82.13
2023-03-23T22:43:13.799Z,82.13
2023-03-23T22:44:13.833Z,82.03
2023-03-23T22:45:13.772Z,81.93
2023-03-23T22:46:13.789Z,81.93
2023-03-23T22:47:13.756Z,81.72
2023-03-23T22:48:13.729Z,81.52
2023-03-23T22:49:13.729Z,81.52
2023-03-23T22:50:13.700Z,81.41
2023-03-23T22:51:13.726Z,81.21
2023-03-23T22:52:13.680Z,81.21
2023-03-23T22:53:13.718Z,81.11
2023-03-23T22:54:13.652Z,81.01
2023-03-23T22:55:13.679Z,80.80
2023-03-23T22:56:13.626Z,80.60
2023-03-23T22:57:13.701Z,80.50
2023-03-23T22:58:13.613Z,80.50
2023-03-23T22:59:13.656Z,80.46
2023-03-23T23:00:13.598Z,80.36
2023-03-23T23:01:13.664Z,80.36
2023-03-23T23:02:13.586Z,80.26
2023-03-23T23:03:13.845Z,80.26
2023-03-23T23:04:13.572Z,80.26
2023-03-23T23:05:13.575Z,80.16
2023-03-23T23:06:13.513Z,80.16
2023-03-23T23:07:13.944Z,80.16
2023-03-23T23:08:15.179Z,80.05
2023-03-23T23:09:13.497Z,80.05
2023-03-23T23:10:14.960Z,80.05
2023-03-23T23:11:13.485Z,79.95
2023-03-23T23:12:13.499Z,80.05
2023-03-23T23:13:13.478Z,79.95
2023-03-23T23:14:13.429Z,79.95
2023-03-23T23:15:13.447Z,80.05
2023-03-23T23:16:13.444Z,80.16
2023-03-23T23:17:13.404Z,80.05
2023-03-23T23:18:13.440Z,80.05
2023-03-23T23:19:13.399Z,80.26
2023-03-23T23:20:13.370Z,80.26
2023-03-23T23:21:13.362Z,80.26
2023-03-23T23:22:19.082Z,80.36
2023-03-23T23:23:14.349Z,80.36
2023-03-23T23:24:13.311Z,80.46
2023-03-23T23:25:13.321Z,80.46
2023-03-23T23:26:13.327Z,80.36
2023-03-23T23:27:13.308Z,80.36
2023-03-23T23:28:13.267Z,80.36
2023-03-23T23:29:13.265Z,80.36
2023-03-23T23:30:13.233Z,80.36
2023-03-23T23:31:13.301Z,80.46
2023-03-23T23:32:13.232Z,80.56
2023-03-23T23:33:13.246Z,80.56
2023-03-23T23:34:13.201Z,80.66
2023-03-23T23:35:13.233Z,80.77
2023-03-23T23:36:13.163Z,80.77
2023-03-23T23:37:13.179Z,80.97
2023-03-23T23:38:13.146Z,80.87
2023-03-23T23:39:13.175Z,80.97
2023-03-23T23:40:13.150Z,81.17
2023-03-23T23:41:13.149Z,81.27
2023-03-23T23:42:13.101Z,81.38
2023-03-23T23:43:13.129Z,81.38
2023-03-23T23:44:13.082Z,81.48
2023-03-23T23:45:13.118Z,81.48
2023-03-23T23:46:13.164Z,81.48
2023-03-23T23:47:13.071Z,81.54
2023-03-23T23:48:13.041Z,81.65
2023-03-23T23:49:13.045Z,81.65
2023-03-23T23:50:13.026Z,81.85
2023-03-23T23:51:13.786Z,81.88
2023-03-23T23:52:12.999Z,81.85
2023-03-23T23:53:13.005Z,81.99
2023-03-23T23:54:12.967Z,82.09
2023-03-23T23:55:12.973Z,82.09
2023-03-23T23:56:12.958Z,82.29
2023-03-23T23:57:13.001Z,82.56
2023-03-23T23:58:12.935Z,82.76
2023-03-23T23:59:12.934Z,82.76
